sensor_id;sensor_type;location;lat;lon;timestamp;temperature;humidity
64143;DHT22;50437;51.970;5.904;2022-09-17T00:02:21;11.80;92.70
64143;DHT22;50437;51.970;5.904;2022-09-17T00:04:48;11.80;92.70
64143;DHT22;50437;51.970;5.904;2022-09-17T00:07:14;11.90;93.30
64143;DHT22;50437;51.970;5.904;2022-09-17T00:09:40;11.90;93.60
64143;DHT22;50437;51.970;5.904;2022-09-17T00:12:06;12.00;93.30
64143;DHT22;50437;51.970;5.904;2022-09-17T00:14:32;11.90;93.10
64143;DHT22;50437;51.970;5.904;2022-09-17T00:16:58;11.80;93.10
64143;DHT22;50437;51.970;5.904;2022-09-17T00:19:24;11.80;93.20
64143;DHT22;50437;51.970;5.904;2022-09-17T00:21:51;11.80;94.00
64143;DHT22;50437;51.970;5.904;2022-09-17T00:24:17;11.80;93.80
64143;DHT22;50437;51.970;5.904;2022-09-17T00:26:44;11.80;94.20
64143;DHT22;50437;51.970;5.904;2022-09-17T00:29:10;11.70;93.30
64143;DHT22;50437;51.970;5.904;2022-09-17T00:31:36;11.70;93.40
64143;DHT22;50437;51.970;5.904;2022-09-17T00:34:03;11.70;93.60
64143;DHT22;50437;51.970;5.904;2022-09-17T00:36:29;11.70;94.00
64143;DHT22;50437;51.970;5.904;2022-09-17T00:38:56;11.60;94.20
64143;DHT22;50437;51.970;5.904;2022-09-17T00:41:23;11.70;93.90
64143;DHT22;50437;51.970;5.904;2022-09-17T00:43:51;11.70;94.20
64143;DHT22;50437;51.970;5.904;2022-09-17T00:49:20;11.60;93.50
64143;DHT22;50437;51.970;5.904;2022-09-17T00:51:54;11.50;93.80
64143;DHT22;50437;51.970;5.904;2022-09-17T00:54:22;11.50;93.20
64143;DHT22;50437;51.970;5.904;2022-09-17T00:56:48;11.60;94.10
64143;DHT22;50437;51.970;5.904;2022-09-17T00:59:15;11.50;93.90
64143;DHT22;50437;51.970;5.904;2022-09-17T01:01:42;11.60;94.00
64143;DHT22;50437;51.970;5.904;2022-09-17T01:04:14;11.60;94.30
64143;DHT22;50437;51.970;5.904;2022-09-17T01:24:31;11.50;95.10
64143;DHT22;50437;51.970;5.904;2022-09-17T01:29:44;11.50;95.80
64143;DHT22;50437;51.970;5.904;2022-09-17T01:32:27;11.50;95.70
64143;DHT22;50437;51.970;5.904;2022-09-17T01:37:40;11.40;95.60
64143;DHT22;50437;51.970;5.904;2022-09-17T01:40:11;11.30;96.00
64143;DHT22;50437;51.970;5.904;2022-09-17T01:42:48;11.30;96.60
64143;DHT22;50437;51.970;5.904;2022-09-17T01:47:54;11.30;96.60
64143;DHT22;50437;51.970;5.904;2022-09-17T01:50:26;11.20;97.20
64143;DHT22;50437;51.970;5.904;2022-09-17T01:52:53;11.20;97.10
64143;DHT22;50437;51.970;5.904;2022-09-17T01:55:20;11.20;96.90
64143;DHT22;50437;51.970;5.904;2022-09-17T02:00:14;11.20;97.10
64143;DHT22;50437;51.970;5.904;2022-09-17T02:03:01;11.30;97.20
64143;DHT22;50437;51.970;5.904;2022-09-17T02:05:38;11.20;97.20
64143;DHT22;50437;51.970;5.904;2022-09-17T02:08:10;11.20;97.20
64143;DHT22;50437;51.970;5.904;2022-09-17T02:10:41;11.10;97.40
64143;DHT22;50437;51.970;5.904;2022-09-17T02:13:16;11.10;97.50
64143;DHT22;50437;51.970;5.904;2022-09-17T02:15:46;11.10;97.70
64143;DHT22;50437;51.970;5.904;2022-09-17T02:20:42;11.10;98.30
64143;DHT22;50437;51.970;5.904;2022-09-17T02:23:11;11.20;98.40
64143;DHT22;50437;51.970;5.904;2022-09-17T02:25:41;11.20;98.20
64143;DHT22;50437;51.970;5.904;2022-09-17T02:30:34;11.10;97.90
64143;DHT22;50437;51.970;5.904;2022-09-17T02:33:01;11.00;97.80
64143;DHT22;50437;51.970;5.904;2022-09-17T02:35:32;11.00;97.70
64143;DHT22;50437;51.970;5.904;2022-09-17T02:37:59;11.00;97.60
64143;DHT22;50437;51.970;5.904;2022-09-17T02:40:26;11.00;97.80
64143;DHT22;50437;51.970;5.904;2022-09-17T02:43:01;10.90;97.80
64143;DHT22;50437;51.970;5.904;2022-09-17T02:50:55;10.90;98.00
64143;DHT22;50437;51.970;5.904;2022-09-17T02:58:39;10.80;97.80
64143;DHT22;50437;51.970;5.904;2022-09-17T03:01:08;10.80;98.00
64143;DHT22;50437;51.970;5.904;2022-09-17T03:03:38;10.70;98.00
64143;DHT22;50437;51.970;5.904;2022-09-17T03:06:05;10.60;98.20
64143;DHT22;50437;51.970;5.904;2022-09-17T03:08:33;10.60;98.50
64143;DHT22;50437;51.970;5.904;2022-09-17T03:10:59;10.60;98.40
64143;DHT22;50437;51.970;5.904;2022-09-17T03:13:25;10.50;98.20
64143;DHT22;50437;51.970;5.904;2022-09-17T03:15:51;10.50;98.40
64143;DHT22;50437;51.970;5.904;2022-09-17T03:18:17;10.40;98.40
64143;DHT22;50437;51.970;5.904;2022-09-17T03:20:43;10.40;98.60
64143;DHT22;50437;51.970;5.904;2022-09-17T03:23:11;10.40;98.30
64143;DHT22;50437;51.970;5.904;2022-09-17T03:25:37;10.30;98.20
64143;DHT22;50437;51.970;5.904;2022-09-17T03:28:03;10.30;98.30
64143;DHT22;50437;51.970;5.904;2022-09-17T03:30:28;10.30;98.30
64143;DHT22;50437;51.970;5.904;2022-09-17T03:32:54;10.20;98.30
64143;DHT22;50437;51.970;5.904;2022-09-17T03:35:20;10.20;98.40
64143;DHT22;50437;51.970;5.904;2022-09-17T03:37:46;10.10;98.30
64143;DHT22;50437;51.970;5.904;2022-09-17T03:40:12;10.10;98.50
64143;DHT22;50437;51.970;5.904;2022-09-17T03:42:38;10.10;98.40
64143;DHT22;50437;51.970;5.904;2022-09-17T03:45:04;10.10;98.50
64143;DHT22;50437;51.970;5.904;2022-09-17T03:47:31;10.10;98.60
64143;DHT22;50437;51.970;5.904;2022-09-17T03:49:57;10.10;98.30
64143;DHT22;50437;51.970;5.904;2022-09-17T03:52:23;10.00;98.10
64143;DHT22;50437;51.970;5.904;2022-09-17T03:54:48;10.00;98.20
64143;DHT22;50437;51.970;5.904;2022-09-17T03:57:14;10.00;98.20
64143;DHT22;50437;51.970;5.904;2022-09-17T03:59:41;10.10;98.60
64143;DHT22;50437;51.970;5.904;2022-09-17T04:02:07;10.10;98.20
64143;DHT22;50437;51.970;5.904;2022-09-17T04:04:33;10.00;97.70
64143;DHT22;50437;51.970;5.904;2022-09-17T04:06:59;10.00;97.50
64143;DHT22;50437;51.970;5.904;2022-09-17T04:09:25;10.00;97.10
64143;DHT22;50437;51.970;5.904;2022-09-17T04:11:51;9.90;96.90
64143;DHT22;50437;51.970;5.904;2022-09-17T04:14:17;9.90;97.60
64143;DHT22;50437;51.970;5.904;2022-09-17T04:16:43;9.80;97.20
64143;DHT22;50437;51.970;5.904;2022-09-17T04:19:09;9.80;97.60
64143;DHT22;50437;51.970;5.904;2022-09-17T04:21:35;9.80;97.20
64143;DHT22;50437;51.970;5.904;2022-09-17T04:24:01;9.80;97.00
64143;DHT22;50437;51.970;5.904;2022-09-17T04:26:26;9.80;97.40
64143;DHT22;50437;51.970;5.904;2022-09-17T04:28:52;9.80;97.30
64143;DHT22;50437;51.970;5.904;2022-09-17T04:31:18;9.80;97.10
64143;DHT22;50437;51.970;5.904;2022-09-17T04:33:44;9.80;97.00
64143;DHT22;50437;51.970;5.904;2022-09-17T04:36:10;9.70;97.20
64143;DHT22;50437;51.970;5.904;2022-09-17T04:38:36;9.60;97.30
64143;DHT22;50437;51.970;5.904;2022-09-17T04:41:02;9.50;97.40
64143;DHT22;50437;51.970;5.904;2022-09-17T04:43:30;9.50;97.50
64143;DHT22;50437;51.970;5.904;2022-09-17T04:45:56;9.50;97.80
64143;DHT22;50437;51.970;5.904;2022-09-17T04:48:22;9.40;97.80
64143;DHT22;50437;51.970;5.904;2022-09-17T04:50:48;9.30;98.00
64143;DHT22;50437;51.970;5.904;2022-09-17T04:53:14;9.30;98.20
64143;DHT22;50437;51.970;5.904;2022-09-17T04:55:41;9.30;98.20
64143;DHT22;50437;51.970;5.904;2022-09-17T04:58:07;9.40;98.20
64143;DHT22;50437;51.970;5.904;2022-09-17T05:00:33;9.30;98.00
64143;DHT22;50437;51.970;5.904;2022-09-17T05:03:00;9.30;98.10
64143;DHT22;50437;51.970;5.904;2022-09-17T05:05:26;9.30;98.30
64143;DHT22;50437;51.970;5.904;2022-09-17T05:07:52;9.40;98.40
64143;DHT22;50437;51.970;5.904;2022-09-17T05:10:18;9.30;98.20
64143;DHT22;50437;51.970;5.904;2022-09-17T05:12:48;9.40;98.20
64143;DHT22;50437;51.970;5.904;2022-09-17T05:15:15;9.40;98.30
64143;DHT22;50437;51.970;5.904;2022-09-17T05:17:44;9.40;98.10
64143;DHT22;50437;51.970;5.904;2022-09-17T05:20:10;9.50;97.80
64143;DHT22;50437;51.970;5.904;2022-09-17T05:22:43;9.50;97.80
64143;DHT22;50437;51.970;5.904;2022-09-17T05:25:11;9.50;98.00
64143;DHT22;50437;51.970;5.904;2022-09-17T05:27:37;9.50;97.80
64143;DHT22;50437;51.970;5.904;2022-09-17T05:30:04;9.50;97.40
64143;DHT22;50437;51.970;5.904;2022-09-17T05:32:30;9.50;97.50
64143;DHT22;50437;51.970;5.904;2022-09-17T05:34:56;9.50;97.50
64143;DHT22;50437;51.970;5.904;2022-09-17T05:37:22;9.50;97.20
64143;DHT22;50437;51.970;5.904;2022-09-17T05:39:48;9.50;97.20
64143;DHT22;50437;51.970;5.904;2022-09-17T05:42:13;9.60;97.10
64143;DHT22;50437;51.970;5.904;2022-09-17T05:44:39;9.50;96.90
64143;DHT22;50437;51.970;5.904;2022-09-17T05:47:05;9.50;96.90
64143;DHT22;50437;51.970;5.904;2022-09-17T05:49:31;9.40;97.20
64143;DHT22;50437;51.970;5.904;2022-09-17T05:51:57;9.50;97.50
64143;DHT22;50437;51.970;5.904;2022-09-17T05:54:23;9.50;97.60
64143;DHT22;50437;51.970;5.904;2022-09-17T05:56:52;9.60;97.80
64143;DHT22;50437;51.970;5.904;2022-09-17T05:59:18;9.60;97.70
64143;DHT22;50437;51.970;5.904;2022-09-17T06:01:44;9.50;97.50
64143;DHT22;50437;51.970;5.904;2022-09-17T06:04:10;9.50;97.60
64143;DHT22;50437;51.970;5.904;2022-09-17T06:06:36;9.50;97.60
64143;DHT22;50437;51.970;5.904;2022-09-17T06:09:04;9.50;97.70
64143;DHT22;50437;51.970;5.904;2022-09-17T06:11:30;9.50;97.70
64143;DHT22;50437;51.970;5.904;2022-09-17T06:13:56;9.50;97.70
64143;DHT22;50437;51.970;5.904;2022-09-17T06:16:22;9.50;97.60
64143;DHT22;50437;51.970;5.904;2022-09-17T06:18:48;9.60;97.80
64143;DHT22;50437;51.970;5.904;2022-09-17T06:21:20;9.50;97.70
64143;DHT22;50437;51.970;5.904;2022-09-17T06:23:48;9.50;97.70
64143;DHT22;50437;51.970;5.904;2022-09-17T06:26:14;9.50;97.80
64143;DHT22;50437;51.970;5.904;2022-09-17T06:28:40;9.60;97.80
64143;DHT22;50437;51.970;5.904;2022-09-17T06:31:06;9.70;97.60
64143;DHT22;50437;51.970;5.904;2022-09-17T06:33:32;9.80;97.50
64143;DHT22;50437;51.970;5.904;2022-09-17T06:35:59;9.90;97.40
64143;DHT22;50437;51.970;5.904;2022-09-17T06:38:26;10.00;96.70
64143;DHT22;50437;51.970;5.904;2022-09-17T06:40:52;10.00;96.60
64143;DHT22;50437;51.970;5.904;2022-09-17T06:43:18;10.10;96.90
64143;DHT22;50437;51.970;5.904;2022-09-17T06:45:50;10.10;96.70
64143;DHT22;50437;51.970;5.904;2022-09-17T06:48:16;10.20;95.60
64143;DHT22;50437;51.970;5.904;2022-09-17T06:50:42;10.20;95.70
64143;DHT22;50437;51.970;5.904;2022-09-17T06:53:08;10.30;95.50
64143;DHT22;50437;51.970;5.904;2022-09-17T06:55:34;10.40;95.00
64143;DHT22;50437;51.970;5.904;2022-09-17T06:58:00;10.50;94.80
64143;DHT22;50437;51.970;5.904;2022-09-17T07:00:26;10.50;94.50
64143;DHT22;50437;51.970;5.904;2022-09-17T07:02:56;10.60;94.60
64143;DHT22;50437;51.970;5.904;2022-09-17T07:05:22;10.70;94.40
64143;DHT22;50437;51.970;5.904;2022-09-17T07:07:49;10.70;94.30
64143;DHT22;50437;51.970;5.904;2022-09-17T07:10:15;10.80;94.30
64143;DHT22;50437;51.970;5.904;2022-09-17T07:12:41;10.90;93.70
64143;DHT22;50437;51.970;5.904;2022-09-17T07:15:07;11.00;93.80
64143;DHT22;50437;51.970;5.904;2022-09-17T07:17:36;11.00;93.60
64143;DHT22;50437;51.970;5.904;2022-09-17T07:20:04;11.10;94.00
64143;DHT22;50437;51.970;5.904;2022-09-17T07:22:30;11.10;93.30
64143;DHT22;50437;51.970;5.904;2022-09-17T07:24:56;11.20;92.90
64143;DHT22;50437;51.970;5.904;2022-09-17T07:27:22;11.30;93.30
64143;DHT22;50437;51.970;5.904;2022-09-17T07:29:48;11.40;92.30
64143;DHT22;50437;51.970;5.904;2022-09-17T07:32:14;11.50;92.60
64143;DHT22;50437;51.970;5.904;2022-09-17T07:34:40;11.60;92.40
64143;DHT22;50437;51.970;5.904;2022-09-17T07:37:06;11.60;92.30
64143;DHT22;50437;51.970;5.904;2022-09-17T07:39:32;11.70;91.80
64143;DHT22;50437;51.970;5.904;2022-09-17T07:41:57;11.70;91.80
64143;DHT22;50437;51.970;5.904;2022-09-17T07:44:24;11.80;90.90
64143;DHT22;50437;51.970;5.904;2022-09-17T07:46:50;11.90;91.10
64143;DHT22;50437;51.970;5.904;2022-09-17T07:49:16;11.90;90.90
64143;DHT22;50437;51.970;5.904;2022-09-17T07:51:42;12.00;91.00
64143;DHT22;50437;51.970;5.904;2022-09-17T07:54:08;12.10;90.00
64143;DHT22;50437;51.970;5.904;2022-09-17T07:56:34;12.20;90.10
64143;DHT22;50437;51.970;5.904;2022-09-17T07:59:00;12.20;89.80
64143;DHT22;50437;51.970;5.904;2022-09-17T08:01:26;12.30;90.40
64143;DHT22;50437;51.970;5.904;2022-09-17T08:03:53;12.30;90.40
64143;DHT22;50437;51.970;5.904;2022-09-17T08:06:20;12.40;89.40
64143;DHT22;50437;51.970;5.904;2022-09-17T08:08:46;12.50;90.10
64143;DHT22;50437;51.970;5.904;2022-09-17T08:11:19;12.50;88.40
64143;DHT22;50437;51.970;5.904;2022-09-17T08:13:49;12.70;86.50
64143;DHT22;50437;51.970;5.904;2022-09-17T08:16:15;12.70;86.60
64143;DHT22;50437;51.970;5.904;2022-09-17T08:18:41;12.80;88.20
64143;DHT22;50437;51.970;5.904;2022-09-17T08:21:09;12.80;85.70
64143;DHT22;50437;51.970;5.904;2022-09-17T08:23:36;12.90;85.70
64143;DHT22;50437;51.970;5.904;2022-09-17T08:26:02;13.00;84.80
64143;DHT22;50437;51.970;5.904;2022-09-17T08:28:29;13.10;86.40
64143;DHT22;50437;51.970;5.904;2022-09-17T08:30:58;13.20;84.00
64143;DHT22;50437;51.970;5.904;2022-09-17T08:33:25;13.30;83.10
64143;DHT22;50437;51.970;5.904;2022-09-17T08:35:54;13.50;83.80
64143;DHT22;50437;51.970;5.904;2022-09-17T08:38:24;13.70;82.70
64143;DHT22;50437;51.970;5.904;2022-09-17T08:43:28;14.10;78.20
64143;DHT22;50437;51.970;5.904;2022-09-17T08:45:56;14.00;75.60
64143;DHT22;50437;51.970;5.904;2022-09-17T08:48:24;14.80;77.00
64143;DHT22;50437;51.970;5.904;2022-09-17T08:50:51;16.30;68.20
64143;DHT22;50437;51.970;5.904;2022-09-17T08:53:22;17.70;65.70
64143;DHT22;50437;51.970;5.904;2022-09-17T08:55:57;18.90;57.80
64143;DHT22;50437;51.970;5.904;2022-09-17T09:06:04;17.00;62.70
64143;DHT22;50437;51.970;5.904;2022-09-17T09:08:32;16.90;59.10
64143;DHT22;50437;51.970;5.904;2022-09-17T09:11:01;16.70;63.50
64143;DHT22;50437;51.970;5.904;2022-09-17T09:13:32;18.00;55.50
64143;DHT22;50437;51.970;5.904;2022-09-17T09:16:01;19.10;54.40
64143;DHT22;50437;51.970;5.904;2022-09-17T09:18:28;19.70;50.50
64143;DHT22;50437;51.970;5.904;2022-09-17T09:21:00;20.20;48.20
64143;DHT22;50437;51.970;5.904;2022-09-17T09:23:33;20.80;48.30
64143;DHT22;50437;51.970;5.904;2022-09-17T09:26:18;21.30;45.40
64143;DHT22;50437;51.970;5.904;2022-09-17T09:34:13;22.10;41.30
64143;DHT22;50437;51.970;5.904;2022-09-17T09:36:40;21.80;41.70
64143;DHT22;50437;51.970;5.904;2022-09-17T09:39:11;22.30;42.80
64143;DHT22;50437;51.970;5.904;2022-09-17T09:41:39;22.30;39.40
64143;DHT22;50437;51.970;5.904;2022-09-17T09:44:10;22.90;41.30
64143;DHT22;50437;51.970;5.904;2022-09-17T09:57:20;21.00;43.60
64143;DHT22;50437;51.970;5.904;2022-09-17T09:59:47;20.10;45.60
64143;DHT22;50437;51.970;5.904;2022-09-17T10:02:13;18.10;50.40
64143;DHT22;50437;51.970;5.904;2022-09-17T10:04:39;17.70;53.80
64143;DHT22;50437;51.970;5.904;2022-09-17T10:07:06;17.00;54.90
64143;DHT22;50437;51.970;5.904;2022-09-17T10:09:33;15.90;61.60
64143;DHT22;50437;51.970;5.904;2022-09-17T10:14:35;14.90;67.70
64143;DHT22;50437;51.970;5.904;2022-09-17T10:17:15;14.90;73.60
64143;DHT22;50437;51.970;5.904;2022-09-17T10:19:42;14.80;76.60
64143;DHT22;50437;51.970;5.904;2022-09-17T10:24:46;15.40;77.10
64143;DHT22;50437;51.970;5.904;2022-09-17T10:27:14;15.00;79.70
64143;DHT22;50437;51.970;5.904;2022-09-17T10:29:44;14.90;81.80
64143;DHT22;50437;51.970;5.904;2022-09-17T10:32:15;14.70;81.80
64143;DHT22;50437;51.970;5.904;2022-09-17T10:34:42;16.10;75.30
64143;DHT22;50437;51.970;5.904;2022-09-17T10:37:32;18.30;72.30
64143;DHT22;50437;51.970;5.904;2022-09-17T10:39:58;18.60;68.20
64143;DHT22;50437;51.970;5.904;2022-09-17T10:42:24;17.60;69.50
64143;DHT22;50437;51.970;5.904;2022-09-17T10:44:51;16.50;75.30
64143;DHT22;50437;51.970;5.904;2022-09-17T10:47:30;15.20;77.90
64143;DHT22;50437;51.970;5.904;2022-09-17T10:50:14;13.90;80.70
64143;DHT22;50437;51.970;5.904;2022-09-17T10:52:45;13.20;90.40
64143;DHT22;50437;51.970;5.904;2022-09-17T10:55:29;13.00;91.40
64143;DHT22;50437;51.970;5.904;2022-09-17T11:00:49;17.10;76.00
64143;DHT22;50437;51.970;5.904;2022-09-17T11:35:10;18.90;63.70
64143;DHT22;50437;51.970;5.904;2022-09-17T11:37:39;18.70;67.40
64143;DHT22;50437;51.970;5.904;2022-09-17T11:40:12;19.10;65.80
64143;DHT22;50437;51.970;5.904;2022-09-17T11:45:17;18.20;61.80
64143;DHT22;50437;51.970;5.904;2022-09-17T11:47:55;17.60;57.50
64143;DHT22;50437;51.970;5.904;2022-09-17T11:50:24;17.60;65.10
64143;DHT22;50437;51.970;5.904;2022-09-17T11:52:59;18.00;61.60
64143;DHT22;50437;51.970;5.904;2022-09-17T11:55:30;18.10;61.90
64143;DHT22;50437;51.970;5.904;2022-09-17T11:57:59;18.10;62.10
64143;DHT22;50437;51.970;5.904;2022-09-17T12:00:25;17.80;60.60
64143;DHT22;50437;51.970;5.904;2022-09-17T12:02:57;18.00;60.30
64143;DHT22;50437;51.970;5.904;2022-09-17T12:05:27;18.50;58.40
64143;DHT22;50437;51.970;5.904;2022-09-17T12:08:08;18.70;58.30
64143;DHT22;50437;51.970;5.904;2022-09-17T12:10:43;18.70;57.30
64143;DHT22;50437;51.970;5.904;2022-09-17T12:13:29;18.20;55.10
64143;DHT22;50437;51.970;5.904;2022-09-17T12:16:17;17.80;56.00
64143;DHT22;50437;51.970;5.904;2022-09-17T12:18:54;17.20;57.90
64143;DHT22;50437;51.970;5.904;2022-09-17T12:21:41;16.50;60.50
64143;DHT22;50437;51.970;5.904;2022-09-17T12:26:45;15.50;71.00
64143;DHT22;50437;51.970;5.904;2022-09-17T12:34:19;15.50;68.50
64143;DHT22;50437;51.970;5.904;2022-09-17T12:39:39;15.30;68.90
64143;DHT22;50437;51.970;5.904;2022-09-17T12:44:36;15.90;67.60
64143;DHT22;50437;51.970;5.904;2022-09-17T12:55:06;15.90;60.30
64143;DHT22;50437;51.970;5.904;2022-09-17T12:57:42;15.80;67.00
64143;DHT22;50437;51.970;5.904;2022-09-17T13:00:10;16.00;69.40
64143;DHT22;50437;51.970;5.904;2022-09-17T13:15:41;16.00;70.00
64143;DHT22;50437;51.970;5.904;2022-09-17T13:26:15;16.50;65.50
64143;DHT22;50437;51.970;5.904;2022-09-17T13:28:44;16.50;62.90
64143;DHT22;50437;51.970;5.904;2022-09-17T13:31:11;16.10;64.40
64143;DHT22;50437;51.970;5.904;2022-09-17T13:33:55;16.10;61.50
64143;DHT22;50437;51.970;5.904;2022-09-17T13:36:37;15.90;62.30
64143;DHT22;50437;51.970;5.904;2022-09-17T13:39:05;16.10;63.70
64143;DHT22;50437;51.970;5.904;2022-09-17T13:41:33;16.10;63.10
64143;DHT22;50437;51.970;5.904;2022-09-17T13:44:01;16.20;66.00
64143;DHT22;50437;51.970;5.904;2022-09-17T13:46:29;16.20;58.50
64143;DHT22;50437;51.970;5.904;2022-09-17T13:48:58;15.90;62.10
64143;DHT22;50437;51.970;5.904;2022-09-17T13:53:55;15.60;59.30
64143;DHT22;50437;51.970;5.904;2022-09-17T13:56:30;15.30;61.30
64143;DHT22;50437;51.970;5.904;2022-09-17T13:59:07;15.10;63.50
64143;DHT22;50437;51.970;5.904;2022-09-17T14:20:52;15.40;67.00
64143;DHT22;50437;51.970;5.904;2022-09-17T14:23:20;15.30;68.80
64143;DHT22;50437;51.970;5.904;2022-09-17T14:25:51;15.10;71.10
64143;DHT22;50437;51.970;5.904;2022-09-17T14:28:32;14.90;71.90
64143;DHT22;50437;51.970;5.904;2022-09-17T14:31:00;14.90;72.40
64143;DHT22;50437;51.970;5.904;2022-09-17T14:33:27;15.10;72.80
64143;DHT22;50437;51.970;5.904;2022-09-17T14:36:01;15.20;70.20
64143;DHT22;50437;51.970;5.904;2022-09-17T14:41:03;15.20;71.60
64143;DHT22;50437;51.970;5.904;2022-09-17T14:45:58;15.40;70.10
64143;DHT22;50437;51.970;5.904;2022-09-17T14:48:26;15.50;70.70
64143;DHT22;50437;51.970;5.904;2022-09-17T14:51:09;15.90;72.70
64143;DHT22;50437;51.970;5.904;2022-09-17T14:53:36;16.10;71.00
64143;DHT22;50437;51.970;5.904;2022-09-17T14:56:02;16.20;67.20
64143;DHT22;50437;51.970;5.904;2022-09-17T14:58:29;16.10;65.70
64143;DHT22;50437;51.970;5.904;2022-09-17T15:00:59;15.80;65.50
64143;DHT22;50437;51.970;5.904;2022-09-17T15:03:25;15.70;64.00
64143;DHT22;50437;51.970;5.904;2022-09-17T15:05:52;15.90;62.40
64143;DHT22;50437;51.970;5.904;2022-09-17T15:08:19;16.10;62.10
64143;DHT22;50437;51.970;5.904;2022-09-17T15:10:47;16.10;62.00
64143;DHT22;50437;51.970;5.904;2022-09-17T15:13:25;16.00;60.70
64143;DHT22;50437;51.970;5.904;2022-09-17T15:15:53;16.00;62.90
64143;DHT22;50437;51.970;5.904;2022-09-17T15:18:20;15.90;60.70
64143;DHT22;50437;51.970;5.904;2022-09-17T15:20:47;15.90;60.90
64143;DHT22;50437;51.970;5.904;2022-09-17T15:23:15;16.10;60.70
64143;DHT22;50437;51.970;5.904;2022-09-17T15:25:43;16.20;64.90
64143;DHT22;50437;51.970;5.904;2022-09-17T15:30:49;15.80;60.00
64143;DHT22;50437;51.970;5.904;2022-09-17T15:33:15;15.90;62.40
64143;DHT22;50437;51.970;5.904;2022-09-17T15:38:32;15.80;62.50
64143;DHT22;50437;51.970;5.904;2022-09-17T15:46:32;15.30;66.00
64143;DHT22;50437;51.970;5.904;2022-09-17T15:49:02;14.90;67.20
64143;DHT22;50437;51.970;5.904;2022-09-17T15:51:30;14.50;66.90
64143;DHT22;50437;51.970;5.904;2022-09-17T15:53:57;14.50;66.60
64143;DHT22;50437;51.970;5.904;2022-09-17T15:56:25;14.60;67.80
64143;DHT22;50437;51.970;5.904;2022-09-17T15:59:02;14.70;68.10
64143;DHT22;50437;51.970;5.904;2022-09-17T16:08:56;14.50;66.60
64143;DHT22;50437;51.970;5.904;2022-09-17T16:11:23;14.40;70.20
64143;DHT22;50437;51.970;5.904;2022-09-17T16:13:50;14.40;69.70
64143;DHT22;50437;51.970;5.904;2022-09-17T16:16:17;14.40;69.30
64143;DHT22;50437;51.970;5.904;2022-09-17T16:18:43;14.30;70.30
64143;DHT22;50437;51.970;5.904;2022-09-17T16:21:10;14.20;70.40
64143;DHT22;50437;51.970;5.904;2022-09-17T16:23:36;14.10;70.30
64143;DHT22;50437;51.970;5.904;2022-09-17T16:26:02;14.10;72.50
64143;DHT22;50437;51.970;5.904;2022-09-17T16:28:28;14.10;71.80
64143;DHT22;50437;51.970;5.904;2022-09-17T16:30:55;14.20;71.20
64143;DHT22;50437;51.970;5.904;2022-09-17T16:33:21;14.10;70.90
64143;DHT22;50437;51.970;5.904;2022-09-17T16:35:47;14.10;70.50
64143;DHT22;50437;51.970;5.904;2022-09-17T16:38:13;14.10;70.10
64143;DHT22;50437;51.970;5.904;2022-09-17T16:40:42;14.10;70.80
64143;DHT22;50437;51.970;5.904;2022-09-17T16:43:08;14.00;71.00
64143;DHT22;50437;51.970;5.904;2022-09-17T16:45:35;13.90;71.10
64143;DHT22;50437;51.970;5.904;2022-09-17T16:48:01;13.90;71.70
64143;DHT22;50437;51.970;5.904;2022-09-17T16:50:27;13.90;70.60
64143;DHT22;50437;51.970;5.904;2022-09-17T16:52:53;13.90;70.40
64143;DHT22;50437;51.970;5.904;2022-09-17T16:55:19;13.90;71.80
64143;DHT22;50437;51.970;5.904;2022-09-17T16:57:46;14.00;71.40
64143;DHT22;50437;51.970;5.904;2022-09-17T17:00:14;14.00;70.40
64143;DHT22;50437;51.970;5.904;2022-09-17T17:02:49;13.90;69.40
64143;DHT22;50437;51.970;5.904;2022-09-17T17:05:15;13.90;69.60
64143;DHT22;50437;51.970;5.904;2022-09-17T17:07:41;13.90;69.70
64143;DHT22;50437;51.970;5.904;2022-09-17T17:10:07;14.00;70.50
64143;DHT22;50437;51.970;5.904;2022-09-17T17:12:34;13.90;71.00
64143;DHT22;50437;51.970;5.904;2022-09-17T17:15:01;13.90;68.60
64143;DHT22;50437;51.970;5.904;2022-09-17T17:17:27;13.80;70.60
64143;DHT22;50437;51.970;5.904;2022-09-17T17:19:54;13.90;70.00
64143;DHT22;50437;51.970;5.904;2022-09-17T17:22:20;13.80;69.50
64143;DHT22;50437;51.970;5.904;2022-09-17T17:24:45;13.80;72.00
64143;DHT22;50437;51.970;5.904;2022-09-17T17:27:11;13.80;71.90
64143;DHT22;50437;51.970;5.904;2022-09-17T17:29:38;13.80;71.10
64143;DHT22;50437;51.970;5.904;2022-09-17T17:32:05;13.80;71.90
64143;DHT22;50437;51.970;5.904;2022-09-17T17:34:31;13.70;71.80
64143;DHT22;50437;51.970;5.904;2022-09-17T17:36:57;13.70;71.90
64143;DHT22;50437;51.970;5.904;2022-09-17T17:39:24;13.60;72.30
64143;DHT22;50437;51.970;5.904;2022-09-17T17:41:49;13.60;73.30
64143;DHT22;50437;51.970;5.904;2022-09-17T17:44:15;13.70;72.10
64143;DHT22;50437;51.970;5.904;2022-09-17T17:46:41;13.70;72.70
64143;DHT22;50437;51.970;5.904;2022-09-17T17:49:07;13.60;73.70
64143;DHT22;50437;51.970;5.904;2022-09-17T17:51:34;13.60;75.40
64143;DHT22;50437;51.970;5.904;2022-09-17T17:54:00;13.60;74.10
64143;DHT22;50437;51.970;5.904;2022-09-17T17:56:26;13.50;73.90
64143;DHT22;50437;51.970;5.904;2022-09-17T17:58:55;13.30;74.60
64143;DHT22;50437;51.970;5.904;2022-09-17T18:01:23;13.20;73.70
64143;DHT22;50437;51.970;5.904;2022-09-17T18:03:54;13.10;74.90
64143;DHT22;50437;51.970;5.904;2022-09-17T18:06:20;13.00;76.30
64143;DHT22;50437;51.970;5.904;2022-09-17T18:08:46;12.90;77.10
64143;DHT22;50437;51.970;5.904;2022-09-17T18:11:12;12.90;77.60
64143;DHT22;50437;51.970;5.904;2022-09-17T18:13:38;12.80;79.20
64143;DHT22;50437;51.970;5.904;2022-09-17T18:16:04;12.90;79.00
64143;DHT22;50437;51.970;5.904;2022-09-17T18:18:32;12.80;79.00
64143;DHT22;50437;51.970;5.904;2022-09-17T18:20:59;12.80;80.20
64143;DHT22;50437;51.970;5.904;2022-09-17T18:23:25;12.80;80.60
64143;DHT22;50437;51.970;5.904;2022-09-17T18:25:53;12.70;80.90
64143;DHT22;50437;51.970;5.904;2022-09-17T18:28:20;12.80;80.70
64143;DHT22;50437;51.970;5.904;2022-09-17T18:30:46;12.70;81.10
64143;DHT22;50437;51.970;5.904;2022-09-17T18:33:20;12.70;81.70
64143;DHT22;50437;51.970;5.904;2022-09-17T18:35:49;12.70;82.40
64143;DHT22;50437;51.970;5.904;2022-09-17T18:38:18;12.70;82.70
64143;DHT22;50437;51.970;5.904;2022-09-17T18:40:44;12.70;83.40
64143;DHT22;50437;51.970;5.904;2022-09-17T18:43:10;12.60;83.90
64143;DHT22;50437;51.970;5.904;2022-09-17T18:45:36;12.60;84.40
64143;DHT22;50437;51.970;5.904;2022-09-17T18:48:05;12.60;85.20
64143;DHT22;50437;51.970;5.904;2022-09-17T18:50:31;12.60;84.60
64143;DHT22;50437;51.970;5.904;2022-09-17T18:52:57;12.50;85.10
64143;DHT22;50437;51.970;5.904;2022-09-17T18:55:23;12.50;85.90
64143;DHT22;50437;51.970;5.904;2022-09-17T18:57:49;12.40;85.90
64143;DHT22;50437;51.970;5.904;2022-09-17T19:00:17;12.40;86.20
64143;DHT22;50437;51.970;5.904;2022-09-17T19:02:46;12.40;86.70